KBLF/BLF METAR and TAF weather

Enter ICAO airport designator
Station Type Date Time Source
KBLF METAR 2020/01/22 14:52 UTC NOAA

KBLF 221452Z AUTO 00000KT 10SM CLR M06/M09 A3034 RMK AO2 SLP314 I3000 T10561089 50007 TSNO


Station Type Date Time Source
KBLF Decoded METAR 2020/01/22 14:52 UTC NOAA

BLUEFIELD MERCER COUNTY AIRPORT , WV, United States (KBLF) 37-18N 081-12W 873M
Jan 22, 2020 - 09:52 AM EST / 2020.01.22 1452 UTC
Wind: Calm:0
Visibility: 10 mile(s):0
Sky conditions: clear
Temperature: 21.9 F (-5.6 C)
Dew Point: 16.0 F (-8.9 C)
Relative Humidity: 77%
Pressure (altimeter): 30.34 in. Hg (1027 hPa)
Pressure tendency: 0.02 inches (0.7 hPa) higher than three hours ago
ob: KBLF 221452Z AUTO 00000KT 10SM CLR M06/M09 A3034 RMK AO2 SLP314 I3000 T10561089 50007 TSNO
cycle: 15

Station Type Date Time Source
KBLF TAF 2020/01/22 12:22 UTC NOAA

TAF KBLF 221120Z 2212/2312 VRB03KT P6SM FEW250
FM230000 15004KT P6SM SCT250

Example: see airport list